Time;durP1;ratioP1;P1;durP2;ratioP2;P2;SDS_P1;SDS_P2;PMS_P1;PMS_P2;Temp;Humidity;BMP_temperature;BMP_pressure;BME280_temperature;BME280_humidity;BME280_pressure;Samples;Min_cycle;Max_cycle;Signal;HPM_P1;HPM_P2
2022/04/04 00:00:43;;;;;;;8.38;3.78;;;;;;;3.15;81.80;101779.19;5077937;28;20484;-68
2022/04/04 00:03:08;;;;;;;7.38;3.38;;;;;;;3.16;81.68;101778.25;5095855;28;20024;-68
2022/04/04 00:05:34;;;;;;;7.78;3.50;;;;;;;3.17;82.01;101779.88;5077895;28;20032;-68
2022/04/04 00:07:59;;;;;;;8.65;3.80;;;;;;;3.04;82.25;101748.50;5077768;28;20031;-68
2022/04/04 00:10:25;;;;;;;9.20;4.20;;;;;;;3.16;82.13;101764.66;5078090;28;20028;-68
2022/04/04 00:12:50;;;;;;;6.00;3.90;;;;;;;3.20;81.95;101758.41;5095855;28;20459;-69
2022/04/04 00:15:15;;;;;;;6.63;4.10;;;;;;;3.21;82.50;101761.78;5078095;28;20016;-68
2022/04/04 00:17:40;;;;;;;8.23;4.82;;;;;;;3.23;82.87;101757.38;5077708;28;20023;-69
2022/04/04 00:20:07;;;;;;;6.70;4.63;;;;;;;3.22;82.50;101745.50;5095772;28;20024;-69
2022/04/04 00:22:33;;;;;;;8.98;5.25;;;;;;;3.20;81.98;101744.81;5095738;28;20056;-68
2022/04/04 00:24:58;;;;;;;11.57;5.40;;;;;;;3.25;82.20;101745.28;5077467;28;20055;-68
2022/04/04 00:27:23;;;;;;;11.48;5.68;;;;;;;3.18;82.65;101732.16;5095699;28;20024;-68
2022/04/04 00:29:49;;;;;;;9.05;5.57;;;;;;;3.29;82.06;101719.41;5077421;28;20546;-68
2022/04/04 00:32:14;;;;;;;11.40;6.18;;;;;;;3.21;82.62;101731.13;5077461;28;20027;-68
2022/04/04 00:34:39;;;;;;;9.70;5.97;;;;;;;3.23;82.52;101716.50;5095521;28;20108;-68
2022/04/04 00:37:05;;;;;;;12.88;6.93;;;;;;;3.28;82.71;101719.50;5077282;28;20042;-68
2022/04/04 00:39:30;;;;;;;12.82;7.05;;;;;;;3.29;82.31;101708.38;5077236;28;20031;-68
2022/04/04 00:41:56;;;;;;;11.05;7.28;;;;;;;3.25;82.38;101712.91;5077220;28;20024;-68
2022/04/04 00:44:21;;;;;;;12.60;6.93;;;;;;;3.24;83.16;101706.16;5094150;28;20024;-68
2022/04/04 00:46:47;;;;;;;11.55;6.78;;;;;;;3.15;83.11;101702.53;5095337;28;20497;-68
2022/04/04 00:49:12;;;;;;;11.02;6.40;;;;;;;3.21;83.50;101697.91;5077112;28;20058;-68
2022/04/04 00:51:38;;;;;;;14.23;7.00;;;;;;;3.26;83.28;101698.38;5076812;28;20052;-68
2022/04/04 00:54:04;;;;;;;12.45;7.28;;;;;;;3.31;83.43;101691.16;5095140;28;20022;-68
2022/04/04 00:56:33;;;;;;;15.25;7.03;;;;;;;3.14;83.44;101672.03;5095123;28;20077;-68
2022/04/04 00:58:59;;;;;;;11.73;7.35;;;;;;;3.24;83.13;101684.91;5094910;28;20050;-68
2022/04/04 01:01:25;;;;;;;17.50;7.53;;;;;;;3.26;83.01;101672.84;5093671;28;20024;-68
2022/04/04 01:03:50;;;;;;;11.93;7.30;;;;;;;3.28;83.45;101678.63;5094882;28;20077;-68
2022/04/04 01:06:16;;;;;;;11.23;7.22;;;;;;;3.29;83.53;101675.16;5094864;28;20020;-68
2022/04/04 01:08:42;;;;;;;11.75;7.78;;;;;;;3.30;83.20;101667.34;5076698;28;20024;-68
2022/04/04 01:11:08;;;;;;;13.75;8.50;;;;;;;3.31;83.51;101669.00;5076683;28;20452;-68
2022/04/04 01:13:33;;;;;;;11.70;7.85;;;;;;;3.29;83.54;101662.38;5094751;28;20025;-68
2022/04/04 01:15:58;;;;;;;13.07;7.50;;;;;;;3.35;83.71;101656.78;5094728;28;20604;-69
2022/04/04 01:18:24;;;;;;;10.48;7.55;;;;;;;3.43;83.05;101651.09;5076543;28;20470;-68
2022/04/04 01:20:50;;;;;;;12.60;8.00;;;;;;;3.42;83.15;101644.34;5076493;28;20020;-69
2022/04/04 01:23:22;;;;;;;14.00;7.70;;;;;;;3.41;83.11;101635.88;5094457;28;20040;-69
2022/04/04 01:25:48;;;;;;;15.30;8.00;;;;;;;3.33;83.24;101615.22;5094540;28;20103;-68
2022/04/04 01:28:13;;;;;;;11.60;7.57;;;;;;;3.30;83.58;101626.47;5094367;28;20051;-69
2022/04/04 01:30:39;;;;;;;12.85;7.30;;;;;;;3.39;83.78;101625.78;5076238;28;20382;-68
2022/04/04 01:33:04;;;;;;;14.13;7.80;;;;;;;3.46;83.21;101621.00;5094402;28;20372;-68
2022/04/04 01:35:29;;;;;;;14.80;7.38;;;;;;;3.43;83.61;101612.78;5076110;28;20049;-69
2022/04/04 01:37:55;;;;;;;19.83;7.30;;;;;;;3.48;83.43;101605.53;5094255;28;20391;-69
2022/04/04 01:40:20;;;;;;;14.70;7.00;;;;;;;3.46;83.50;101598.00;5094233;28;20016;-68
2022/04/04 01:42:48;;;;;;;11.85;7.07;;;;;;;3.57;83.23;101595.41;5075891;28;20020;-69
2022/04/04 01:45:14;;;;;;;12.10;7.47;;;;;;;3.59;82.94;101590.16;5075939;28;20034;-69
2022/04/04 01:47:40;;;;;;;12.73;6.90;;;;;;;3.61;83.46;101589.13;5094164;28;20024;-69
2022/04/04 01:50:07;;;;;;;16.60;7.35;;;;;;;3.58;83.18;101580.88;5075992;28;20078;-69
2022/04/04 01:52:32;;;;;;;12.43;7.10;;;;;;;3.64;83.27;101572.72;5093851;28;20048;-69
2022/04/04 01:54:57;;;;;;;11.38;6.82;;;;;;;3.61;83.63;101565.31;5075719;28;20027;-69
2022/04/04 01:57:22;;;;;;;11.90;6.60;;;;;;;3.61;83.44;101547.41;5093662;28;20379;-68
2022/04/04 01:59:48;;;;;;;13.32;7.05;;;;;;;3.75;83.39;101546.31;5093886;28;20020;-69
2022/04/04 02:02:13;;;;;;;11.10;6.43;;;;;;;3.78;83.22;101535.84;5093873;28;20074;-69
2022/04/04 02:04:38;;;;;;;11.40;6.97;;;;;;;3.72;82.84;101526.91;5075565;28;20024;-68
2022/04/04 02:07:05;;;;;;;20.17;7.30;;;;;;;3.75;83.39;101528.41;5093743;28;20044;-69
2022/04/04 02:09:32;;;;;;;13.52;7.13;;;;;;;3.81;83.31;101520.25;5093761;28;20020;-68
2022/04/04 02:11:57;;;;;;;11.05;6.97;;;;;;;3.64;83.10;101482.47;5093816;28;20028;-69
2022/04/04 02:14:22;;;;;;;11.23;6.93;;;;;;;3.84;83.21;101504.66;5075467;28;20027;-69
2022/04/04 02:16:48;;;;;;;18.02;6.68;;;;;;;3.81;82.75;101504.91;5093804;28;20024;-69
2022/04/04 02:19:13;;;;;;;13.10;6.88;;;;;;;3.88;83.28;101502.66;5075417;28;20024;-69
2022/04/04 02:21:39;;;;;;;10.55;6.90;;;;;;;3.90;82.72;101491.38;5093510;28;20032;-69
2022/04/04 02:24:04;;;;;;;14.18;7.00;;;;;;;3.92;82.71;101491.25;5075289;28;20028;-69
2022/04/04 02:26:30;;;;;;;14.38;7.13;;;;;;;3.85;83.57;101480.69;5075248;28;20471;-68
2022/04/04 02:28:56;;;;;;;13.93;6.88;;;;;;;3.95;82.75;101478.22;5075298;28;20035;-69
2022/04/04 02:31:21;;;;;;;13.25;7.47;;;;;;;3.98;82.93;101472.84;5075205;28;20364;-67
2022/04/04 02:33:46;;;;;;;13.68;7.60;;;;;;;4.06;82.71;101480.69;5058519;28;20032;-68
2022/04/04 02:36:11;;;;;;;11.60;6.95;;;;;;;4.14;82.31;101470.63;5093326;28;20486;-66
2022/04/04 02:38:37;;;;;;;18.45;7.10;;;;;;;4.07;81.81;101466.97;5093333;28;20432;-67
2022/04/04 02:41:02;;;;;;;15.18;7.43;;;;;;;4.14;82.08;101462.94;5075125;28;20486;-68
2022/04/04 02:43:27;;;;;;;14.10;7.28;;;;;;;4.16;82.21;101452.59;5093153;28;20020;-68
2022/04/04 02:45:53;;;;;;;15.20;7.13;;;;;;;4.16;81.93;101450.03;5075017;28;20031;-68
2022/04/04 02:48:19;;;;;;;12.82;7.57;;;;;;;4.18;81.78;101435.38;5093359;28;20020;-67
2022/04/04 02:50:46;;;;;;;15.75;7.53;;;;;;;4.17;81.46;101437.13;5092968;28;20072;-68
2022/04/04 02:53:12;;;;;;;14.15;7.32;;;;;;;4.29;81.34;101427.63;5093236;28;20020;-68
2022/04/04 02:58:21;;;;;;;14.88;7.70;;;;;;;4.37;80.92;101411.59;5092993;28;20088;-68
2022/04/04 03:00:47;;;;;;;13.88;7.70;;;;;;;4.39;80.92;101402.03;5074959;28;20451;-68
2022/04/04 03:03:12;;;;;;;12.10;7.57;;;;;;;4.41;80.55;101400.97;5092873;28;20078;-68
2022/04/04 03:05:38;;;;;;;12.50;6.97;;;;;;;4.38;81.21;101387.63;5074885;28;20020;-68
2022/04/04 03:08:04;;;;;;;12.98;7.32;;;;;;;4.38;80.76;101383.31;5094407;28;20024;-68
2022/04/04 03:10:30;;;;;;;14.45;8.82;;;;;;;4.39;80.66;101379.81;5079008;28;20020;-68
2022/04/04 03:12:56;;;;;;;15.52;8.40;;;;;;;4.40;80.74;101381.44;5078903;28;20035;-68
2022/04/04 03:15:24;;;;;;;16.30;8.75;;;;;;;4.44;80.38;101375.13;5097052;28;20027;-69
2022/04/04 03:17:52;;;;;;;18.77;8.43;;;;;;;4.46;80.54;101365.56;5097004;28;20496;-68
2022/04/04 03:20:19;;;;;;;13.82;8.18;;;;;;;4.44;80.56;101356.41;5096936;28;20471;-69
2022/04/04 03:22:48;;;;;;;14.40;8.80;;;;;;;4.48;80.17;101355.97;5096852;28;20042;-68
2022/04/04 03:25:15;;;;;;;18.90;8.18;;;;;;;4.51;80.55;101345.47;5078843;28;20020;-69
2022/04/04 03:27:41;;;;;;;19.05;8.73;;;;;;;4.47;80.60;101341.56;5096872;28;20020;-68
2022/04/04 03:30:09;;;;;;;16.90;9.50;;;;;;;4.50;80.97;101337.94;5096713;28;20047;-69
2022/04/04 03:32:34;;;;;;;16.85;8.57;;;;;;;4.44;80.56;101329.03;5078572;28;20055;-69
2022/04/04 03:35:00;;;;;;;16.02;8.93;;;;;;;4.45;80.47;101320.41;5078551;28;20063;-69
2022/04/04 03:37:26;;;;;;;17.00;8.52;;;;;;;4.48;80.82;101320.16;5078412;28;20028;-69
2022/04/04 03:39:52;;;;;;;13.15;8.75;;;;;;;4.51;80.46;101307.06;5096549;28;20028;-70
2022/04/04 03:42:18;;;;;;;17.02;8.82;;;;;;;4.56;80.55;101298.22;5078358;28;20024;-69
2022/04/04 03:44:43;;;;;;;14.65;8.38;;;;;;;4.52;80.24;101308.72;5096485;28;20049;-68
2022/04/04 03:47:10;;;;;;;13.82;8.48;;;;;;;4.54;80.41;101293.22;5078100;28;20049;-69
2022/04/04 03:49:36;;;;;;;13.05;7.93;;;;;;;4.54;80.81;101288.09;5096386;28;20027;-69
2022/04/04 03:52:02;;;;;;;16.48;8.15;;;;;;;4.53;80.35;101286.47;5096087;28;20404;-69
2022/04/04 03:54:27;;;;;;;14.50;8.05;;;;;;;4.58;80.31;101280.97;5078119;28;20040;-68
2022/04/04 03:56:52;;;;;;;14.63;8.20;;;;;;;4.65;80.15;101271.78;5096363;28;20107;-69
2022/04/04 03:59:18;;;;;;;17.80;8.43;;;;;;;4.61;79.60;101267.91;5077915;28;20502;-69
2022/04/04 04:01:43;;;;;;;17.67;7.45;;;;;;;4.63;80.05;101268.56;5077999;28;20024;-68
2022/04/04 04:04:08;;;;;;;12.98;7.88;;;;;;;4.60;80.18;101251.72;5077922;28;20028;-68
2022/04/04 04:06:34;;;;;;;12.18;7.50;;;;;;;4.68;80.03;101251.84;5096105;28;20455;-69
2022/04/04 04:08:59;;;;;;;15.43;7.70;;;;;;;4.63;79.73;101245.50;5096047;28;20081;-68
2022/04/04 04:11:26;;;;;;;13.63;7.35;;;;;;;4.68;80.03;101251.03;5096010;28;20020;-68
2022/04/04 04:13:51;;;;;;;11.95;7.18;;;;;;;4.68;79.65;101246.72;5095996;28;20053;-69
2022/04/04 04:16:16;;;;;;;15.50;7.75;;;;;;;4.64;79.33;101232.59;5095925;28;20024;-68
2022/04/04 04:18:42;;;;;;;14.35;7.50;;;;;;;4.63;79.43;101232.72;5095736;28;20024;-69
2022/04/04 04:21:09;;;;;;;14.02;7.85;;;;;;;4.63;79.83;101236.09;5077605;28;20024;-68
2022/04/04 04:23:39;;;;;;;19.90;7.57;;;;;;;4.67;79.33;101221.28;5077453;28;20027;-68
2022/04/04 04:26:06;;;;;;;11.45;6.88;;;;;;;4.71;78.67;101217.47;5095686;28;20024;-69
2022/04/04 04:28:32;;;;;;;14.20;7.45;;;;;;;4.71;78.80;101204.69;5095690;28;20020;-69
2022/04/04 04:30:58;;;;;;;16.00;7.47;;;;;;;4.70;79.60;101203.88;5077474;28;20048;-69
2022/04/04 04:33:24;;;;;;;12.82;7.47;;;;;;;4.59;79.06;101187.88;5077324;28;20028;-68
2022/04/04 04:35:50;;;;;;;12.35;7.00;;;;;;;4.67;79.55;101182.88;5095546;28;20027;-69
2022/04/04 04:38:15;;;;;;;14.60;7.03;;;;;;;4.69;78.76;101181.78;5095537;28;20031;-69
2022/04/04 04:40:41;;;;;;;14.85;7.30;;;;;;;4.65;79.22;101171.94;5095328;28;20070;-68
2022/04/04 04:43:06;;;;;;;14.75;7.15;;;;;;;4.62;78.61;101170.47;5077169;28;20439;-68
2022/04/04 04:45:32;;;;;;;12.85;7.10;;;;;;;4.70;78.66;101168.03;5095344;28;20486;-68
2022/04/04 04:47:57;;;;;;;17.25;7.40;;;;;;;4.65;78.99;101165.06;5095296;28;20043;-68
2022/04/04 04:50:24;;;;;;;15.68;7.30;;;;;;;4.66;79.38;101151.34;5077076;28;20028;-69
2022/04/04 04:52:50;;;;;;;18.15;7.22;;;;;;;4.69;78.63;101152.78;5095042;28;20499;-69
2022/04/04 04:55:18;;;;;;;16.58;7.05;;;;;;;4.71;78.74;101133.78;5077037;28;20047;-68
2022/04/04 04:57:43;;;;;;;12.45;6.90;;;;;;;4.66;78.07;101127.47;5076845;28;20024;-68
2022/04/04 05:00:12;;;;;;;16.27;7.93;;;;;;;4.70;78.97;101129.63;5095082;28;20068;-68
2022/04/04 05:02:37;;;;;;;15.73;6.75;;;;;;;4.76;78.39;101125.69;5094983;28;20118;-69
2022/04/04 05:05:04;;;;;;;12.57;6.78;;;;;;;4.75;78.50;101118.97;5094852;28;20107;-69
2022/04/04 05:07:30;;;;;;;12.88;6.90;;;;;;;4.78;78.36;101116.13;5094895;28;20020;-69
2022/04/04 05:09:55;;;;;;;10.15;6.68;;;;;;;4.78;77.89;101111.00;5094807;28;20035;-68
2022/04/04 05:12:21;;;;;;;17.63;6.90;;;;;;;4.83;77.94;101101.13;5076691;28;20031;-68
2022/04/04 05:14:55;;;;;;;15.43;6.57;;;;;;;4.70;77.88;101067.38;5095061;28;20024;-68
2022/04/04 05:17:21;;;;;;;9.48;6.32;;;;;;;4.78;78.04;101090.53;5094307;28;20035;-67
2022/04/04 05:19:52;;;;;;;14.52;6.70;;;;;;;4.81;78.19;101079.19;5078527;28;20020;-75
2022/04/04 05:22:21;;;;;;;12.45;6.40;;;;;;;4.72;77.76;101057.81;5078253;28;20028;-76
2022/04/04 05:24:47;;;;;;;13.68;6.97;;;;;;;4.83;77.86;101049.91;5077883;28;20108;-76
2022/04/04 05:27:13;;;;;;;11.35;6.55;;;;;;;4.73;77.43;101038.94;5079120;28;20047;-66
2022/04/04 05:29:38;;;;;;;13.25;6.72;;;;;;;4.99;77.00;101059.56;5077640;28;20111;-72
2022/04/04 05:32:07;;;;;;;14.10;6.90;;;;;;;4.83;76.89;101026.88;5095051;28;20058;-76
2022/04/04 05:34:33;;;;;;;14.95;6.70;;;;;;;5.01;76.50;101039.72;5062271;28;20024;-76
2022/04/04 05:36:59;;;;;;;16.10;6.20;;;;;;;5.05;76.45;101030.00;5094600;28;20015;-75
2022/04/04 05:39:24;;;;;;;12.02;5.93;;;;;;;5.06;76.41;101031.59;5094584;28;20027;-76
2022/04/04 05:41:50;;;;;;;10.93;6.32;;;;;;;5.07;76.08;101031.47;5076057;28;20024;-76
2022/04/04 05:44:18;;;;;;;14.05;6.53;;;;;;;5.11;75.72;101029.41;5076227;28;20082;-77
2022/04/04 05:46:43;;;;;;;13.35;6.72;;;;;;;5.10;75.64;101022.69;5094205;28;20529;-76
2022/04/04 05:49:08;;;;;;;16.73;6.47;;;;;;;5.16;75.64;101024.66;5094170;28;20114;-76
2022/04/04 05:51:34;;;;;;;11.88;6.50;;;;;;;5.36;74.81;101038.94;5075805;28;20052;-77
2022/04/04 05:53:59;;;;;;;17.67;7.28;;;;;;;5.28;74.49;101023.50;5094145;28;20360;-76
2022/04/04 05:56:25;;;;;;;11.77;6.25;;;;;;;5.31;75.04;101020.63;5094003;28;20099;-77
2022/04/04 05:58:51;;;;;;;15.98;6.60;;;;;;;5.26;75.25;101012.56;5075920;28;20114;-76
2022/04/04 06:01:16;;;;;;;15.82;6.30;;;;;;;5.34;74.47;101017.78;5075868;28;20024;-76
2022/04/04 06:03:42;;;;;;;10.95;6.88;;;;;;;5.30;75.29;101024.16;5093825;28;20536;-77
2022/04/04 06:06:08;;;;;;;10.30;6.35;;;;;;;5.35;75.14;101005.75;5093875;28;20107;-76
2022/04/04 06:08:33;;;;;;;12.90;7.13;;;;;;;5.40;74.81;100986.44;5093979;28;20386;-76
2022/04/04 06:10:59;;;;;;;14.65;6.55;;;;;;;5.31;75.25;100989.09;5093973;28;20126;-77
2022/04/04 06:13:24;;;;;;;15.77;7.82;;;;;;;5.41;75.54;100984.69;5075913;28;20329;-77
2022/04/04 06:15:49;;;;;;;11.45;7.22;;;;;;;5.35;75.56;100985.25;5075408;28;20028;-76
2022/04/04 06:18:15;;;;;;;16.75;8.13;;;;;;;5.27;76.67;100980.09;5091766;28;20032;-74
2022/04/04 06:20:41;;;;;;;13.98;7.88;;;;;;;5.32;77.10;100981.28;5091884;28;20019;-76
2022/04/04 06:23:08;;;;;;;17.38;7.80;;;;;;;5.34;77.96;100986.22;5091731;28;20052;-76
2022/04/04 06:25:33;;;;;;;16.45;8.40;;;;;;;5.34;78.66;100984.47;5073703;28;20054;-76
2022/04/04 06:27:58;;;;;;;17.08;8.05;;;;;;;5.20;78.70;100985.78;5091765;28;20027;-73
2022/04/04 06:30:25;;;;;;;13.60;8.13;;;;;;;5.22;80.41;100987.41;5073558;28;20034;-75
2022/04/04 06:32:51;;;;;;;14.15;7.57;;;;;;;5.14;81.08;100988.13;5074116;28;20024;-75
2022/04/04 06:35:17;;;;;;;12.10;8.35;;;;;;;5.25;82.93;100972.53;5092179;28;20039;-75
2022/04/04 06:37:43;;;;;;;20.25;9.38;;;;;;;5.26;82.47;100969.00;5092126;28;20028;-75
2022/04/04 06:40:10;;;;;;;12.73;9.23;;;;;;;5.24;83.74;100959.88;5091721;28;20023;-75
2022/04/04 06:42:37;;;;;;;14.40;9.27;;;;;;;5.31;83.84;100961.69;5072244;28;20031;-74
2022/04/04 06:45:04;;;;;;;18.40;8.15;;;;;;;5.37;83.55;100961.09;5090982;28;20020;-75
2022/04/04 06:47:30;;;;;;;19.67;8.88;;;;;;;5.42;84.12;100958.91;5089613;28;20058;-77
2022/04/04 06:49:56;;;;;;;13.80;7.97;;;;;;;5.45;84.09;100947.56;5074177;28;20035;-76
2022/04/04 06:52:21;;;;;;;17.58;8.20;;;;;;;5.51;84.17;100941.03;5073642;28;20048;-75
2022/04/04 06:54:47;;;;;;;16.75;7.60;;;;;;;5.47;83.68;100934.56;5073176;28;20066;-75
2022/04/04 06:57:12;;;;;;;21.08;7.97;;;;;;;5.50;83.58;100929.97;5072814;28;20016;-77
2022/04/04 06:59:38;;;;;;;17.48;8.40;;;;;;;5.46;84.51;100917.59;5093251;28;20024;-77
2022/04/04 07:02:03;;;;;;;18.50;8.73;;;;;;;5.39;83.92;100941.25;5092729;28;20078;-76
2022/04/04 07:04:29;;;;;;;14.75;7.88;;;;;;;5.32;83.53;100921.50;5092916;28;20107;-75
2022/04/04 07:06:54;;;;;;;15.13;8.00;;;;;;;5.32;84.29;100930.00;5094797;28;20050;-77
2022/04/04 07:09:19;;;;;;;18.08;7.72;;;;;;;5.32;84.01;100904.38;5074916;28;20466;-76
2022/04/04 07:11:45;;;;;;;12.05;8.02;;;;;;;5.34;84.08;100907.59;5057769;28;20031;-76
2022/04/04 07:14:10;;;;;;;14.32;7.43;;;;;;;5.27;84.73;100893.78;5092088;28;20024;-76
2022/04/04 07:16:36;;;;;;;14.77;7.38;;;;;;;5.22;85.56;100911.34;5074946;28;20028;-76
2022/04/04 07:19:01;;;;;;;16.20;7.97;;;;;;;5.20;85.75;100896.09;5075066;28;20016;-74
2022/04/04 07:21:28;;;;;;;12.13;7.60;;;;;;;5.23;85.50;100889.09;5093217;28;20027;-75
2022/04/04 07:23:54;;;;;;;16.90;7.53;;;;;;;5.25;85.95;100885.41;5074735;28;20103;-76
2022/04/04 07:26:21;;;;;;;17.40;7.70;;;;;;;5.30;86.42;100893.47;5092906;28;20097;-76
2022/04/04 07:28:47;;;;;;;10.88;6.75;;;;;;;5.27;86.74;100882.72;5073234;28;20026;-74
2022/04/04 07:31:14;;;;;;;12.48;6.88;;;;;;;5.30;87.04;100877.28;5073733;28;20382;-76
2022/04/04 07:33:39;;;;;;;15.80;7.38;;;;;;;5.33;87.18;100885.47;5073322;28;20026;-76
2022/04/04 07:36:05;;;;;;;14.40;6.60;;;;;;;5.35;86.55;100868.22;5073666;28;20023;-76
2022/04/04 07:38:30;;;;;;;14.23;7.72;;;;;;;5.44;87.04;100863.94;5074575;28;20032;-75
2022/04/04 07:40:55;;;;;;;15.57;7.25;;;;;;;5.40;87.37;100873.66;5092816;28;20099;-76
2022/04/04 07:43:21;;;;;;;15.98;6.65;;;;;;;5.31;87.77;100874.56;5074098;28;20062;-77
2022/04/04 07:45:46;;;;;;;16.05;7.68;;;;;;;5.34;88.10;100863.22;5091511;28;20106;-75
2022/04/04 07:48:12;;;;;;;16.02;6.47;;;;;;;5.24;87.86;100860.75;5092274;28;20027;-77
2022/04/04 07:50:38;;;;;;;14.10;6.07;;;;;;;5.40;88.28;100867.75;5093409;28;20051;-76
2022/04/04 07:53:04;;;;;;;13.48;5.97;;;;;;;5.46;88.29;100868.91;5074713;28;20499;-76
2022/04/04 07:55:29;;;;;;;22.15;6.20;;;;;;;5.49;87.58;100864.25;5096871;28;20020;-75
2022/04/04 07:57:54;;;;;;;15.32;4.95;;;;;;;5.84;84.81;100870.22;5096243;28;20119;-76
2022/04/04 08:00:21;;;;;;;7.80;4.00;;;;;;;6.50;82.59;100871.25;5078341;28;20028;-78
2022/04/04 08:02:47;;;;;;;9.48;4.13;;;;;;;6.26;82.00;100849.72;5078354;28;20020;-75
2022/04/04 08:05:13;;;;;;;9.07;3.50;;;;;;;6.96;81.75;100835.66;5095201;28;20357;-77
2022/04/04 08:07:40;;;;;;;6.57;3.40;;;;;;;6.98;79.68;100831.16;5095538;28;20024;-77
2022/04/04 08:10:06;;;;;;;11.10;3.90;;;;;;;6.15;83.06;100844.06;5094076;28;20474;-75
2022/04/04 08:12:32;;;;;;;9.73;4.47;;;;;;;5.58;86.27;100837.75;5094866;28;20031;-75
2022/04/04 08:14:57;;;;;;;8.00;4.20;;;;;;;5.42;87.36;100833.31;5096034;28;20024;-77
2022/04/04 08:17:23;;;;;;;9.18;3.92;;;;;;;5.34;87.26;100828.13;5096927;28;20032;-76
2022/04/04 08:19:50;;;;;;;9.68;4.40;;;;;;;5.28;87.27;100822.81;5096719;28;20355;-76
2022/04/04 08:22:16;;;;;;;10.18;3.95;;;;;;;5.26;88.58;100825.53;5096062;28;20028;-76
2022/04/04 08:24:41;;;;;;;9.65;4.68;;;;;;;5.08;89.04;100788.91;5078353;28;20042;-77
2022/04/04 08:27:09;;;;;;;9.38;4.55;;;;;;;5.23;89.90;100830.94;5079270;28;20486;-77
2022/04/04 08:29:35;;;;;;;10.98;4.53;;;;;;;5.10;89.98;100810.88;5097593;28;20025;-76
2022/04/04 08:32:01;;;;;;;10.23;4.70;;;;;;;5.02;90.55;100810.00;5078524;28;20032;-75
2022/04/04 08:34:27;;;;;;;9.20;4.22;;;;;;;5.13;90.49;100813.13;5077804;28;20024;-77
2022/04/04 08:36:52;;;;;;;6.43;4.20;;;;;;;5.12;91.27;100805.56;5077500;28;20016;-75
2022/04/04 08:39:18;;;;;;;11.25;4.65;;;;;;;5.12;90.71;100792.78;5077570;28;20061;-75
2022/04/04 08:41:43;;;;;;;8.20;4.78;;;;;;;5.10;91.42;100802.38;5077552;28;20031;-76
2022/04/04 08:44:08;;;;;;;7.45;4.18;;;;;;;5.04;91.47;100813.22;5077482;28;20020;-76
2022/04/04 08:46:34;;;;;;;13.10;4.28;;;;;;;4.94;91.62;100791.06;5077932;28;20039;-77
2022/04/04 08:49:06;;;;;;;8.50;4.65;;;;;;;5.24;92.63;100793.34;5077539;28;20043;-76
2022/04/04 08:51:32;;;;;;;8.95;4.65;;;;;;;5.13;91.76;100791.84;5067511;28;20051;-77
2022/04/04 08:53:57;;;;;;;7.13;4.53;;;;;;;5.20;92.08;100785.13;5053991;28;20104;-76
2022/04/04 08:56:24;;;;;;;11.07;5.50;;;;;;;5.31;91.92;100792.56;5053916;28;20025;-76
2022/04/04 08:58:51;;;;;;;10.18;4.65;;;;;;;5.18;91.70;100776.81;5053623;28;20021;-76
2022/04/04 09:01:18;;;;;;;9.20;5.40;;;;;;;5.27;92.20;100764.84;5055404;28;20035;-75
2022/04/04 09:03:43;;;;;;;9.85;4.97;;;;;;;5.25;91.54;100772.69;5053846;28;20017;-77
2022/04/04 09:06:09;;;;;;;13.27;5.25;;;;;;;5.24;91.22;100773.66;5054232;28;20116;-78
2022/04/04 09:08:45;;;;;;;13.82;5.55;;;;;;;5.20;92.72;100762.09;5053760;28;20021;-77
2022/04/04 09:11:10;;;;;;;9.73;4.53;;;;;;;5.28;92.16;100771.56;5054977;28;20032;-76
2022/04/04 09:13:35;;;;;;;13.00;4.95;;;;;;;5.37;91.80;100765.53;5053707;28;20031;-77
2022/04/04 09:16:06;;;;;;;9.23;4.93;;;;;;;5.58;91.09;100760.00;5054994;28;20357;-75
2022/04/04 09:18:37;;;;;;;12.48;4.63;;;;;;;5.61;90.02;100782.78;5054749;28;20016;-77
2022/04/04 09:21:28;;;;;;;12.15;4.50;;;;;;;5.59;90.86;100748.81;5053622;28;20078;-75
2022/04/04 09:23:56;;;;;;;17.20;6.00;;;;;;;5.53;91.11;100752.78;5053545;28;20040;-77
2022/04/04 09:26:41;;;;;;;14.23;4.45;;;;;;;5.54;91.69;100741.56;5054915;28;20032;-76
2022/04/04 09:29:12;;;;;;;6.68;3.95;;;;;;;5.61;91.84;100764.81;5054838;28;20456;-77
2022/04/04 09:31:54;;;;;;;11.43;4.25;;;;;;;5.56;91.85;100761.94;5054665;28;20388;-76
2022/04/04 09:34:20;;;;;;;10.07;4.43;;;;;;;5.54;92.82;100740.78;5036788;28;20025;-76
2022/04/04 09:36:47;;;;;;;11.23;4.53;;;;;;;5.67;92.71;100746.28;5054280;28;20032;-77
2022/04/04 09:39:14;;;;;;;10.82;4.40;;;;;;;5.74;92.36;100733.63;5052961;28;20021;-76
2022/04/04 09:41:40;;;;;;;11.27;4.55;;;;;;;5.76;92.47;100724.84;5053153;28;20329;-75
2022/04/04 09:44:08;;;;;;;11.43;3.72;;;;;;;5.81;93.33;100735.44;5054098;28;20044;-75
2022/04/04 09:46:39;;;;;;;9.55;4.60;;;;;;;5.89;92.32;100727.72;5054034;28;20392;-74
2022/04/04 09:49:20;;;;;;;8.77;3.88;;;;;;;5.81;93.28;100738.00;5054823;28;20031;-77
2022/04/04 09:51:49;;;;;;;7.78;3.13;;;;;;;5.80;93.17;100736.38;5069412;28;20560;-74
2022/04/04 09:54:32;;;;;;;8.75;3.42;;;;;;;5.85;93.50;100734.16;5093812;28;20016;-76
2022/04/04 09:57:16;;;;;;;8.00;3.60;;;;;;;5.82;92.92;100724.19;5094399;28;20028;-75
2022/04/04 09:59:42;;;;;;;8.98;3.45;;;;;;;5.92;93.49;100730.94;5076181;28;20152;-76
2022/04/04 10:02:12;;;;;;;7.03;3.05;;;;;;;5.89;93.98;100717.47;5076673;28;20077;-75
2022/04/04 10:04:41;;;;;;;8.63;3.55;;;;;;;5.99;93.82;100708.88;5076348;28;20024;-76
2022/04/04 10:07:08;;;;;;;8.25;2.97;;;;;;;6.04;93.05;100701.50;5094168;28;20028;-76
2022/04/04 10:09:35;;;;;;;9.15;2.92;;;;;;;5.99;93.50;100698.63;5093923;28;20505;-76
2022/04/04 10:12:01;;;;;;;4.50;2.30;;;;;;;6.05;93.32;100703.91;5075726;28;20058;-76
2022/04/04 10:14:28;;;;;;;9.05;2.75;;;;;;;6.02;93.52;100681.13;5075728;28;20118;-76
2022/04/04 10:16:54;;;;;;;7.18;2.47;;;;;;;5.94;93.21;100677.75;5093927;28;20016;-76
2022/04/04 10:19:21;;;;;;;8.80;2.80;;;;;;;6.06;93.43;100694.44;5093720;28;20498;-75
2022/04/04 10:21:47;;;;;;;7.72;2.45;;;;;;;6.09;93.90;100678.72;5075491;28;20073;-75
2022/04/04 10:24:13;;;;;;;5.18;2.50;;;;;;;6.18;93.82;100687.22;5075494;28;20024;-75
2022/04/04 10:26:40;;;;;;;7.13;3.00;;;;;;;6.10;93.58;100672.66;5075592;28;20039;-74
2022/04/04 10:29:16;;;;;;;9.85;3.20;;;;;;;6.20;94.29;100682.75;5093624;28;20470;-76
2022/04/04 10:31:53;;;;;;;6.05;2.47;;;;;;;6.19;93.94;100679.38;5093637;28;20020;-76
2022/04/04 10:34:21;;;;;;;5.45;2.58;;;;;;;6.22;94.09;100668.00;5094153;28;20062;-76
2022/04/04 10:37:14;;;;;;;5.65;2.50;;;;;;;6.23;94.09;100662.69;5075533;28;20058;-76
2022/04/04 10:39:43;;;;;;;8.88;2.65;;;;;;;6.25;94.32;100657.41;5071233;28;20043;-75
2022/04/04 10:42:32;;;;;;;6.10;2.25;;;;;;;6.26;94.51;100646.19;5073914;28;20401;-75
2022/04/04 10:45:03;;;;;;;6.43;2.20;;;;;;;6.26;94.72;100651.31;5080004;28;20036;-77
2022/04/04 10:47:30;;;;;;;5.63;2.38;;;;;;;6.49;94.79;100646.31;5074825;28;20016;-75
2022/04/04 10:50:16;;;;;;;5.40;2.40;;;;;;;6.46;95.07;100644.06;5074727;28;20097;-77
2022/04/04 10:52:44;;;;;;;6.32;2.50;;;;;;;6.46;95.50;100641.50;5092366;28;20048;-77
2022/04/04 10:55:29;;;;;;;9.82;2.78;;;;;;;6.43;95.78;100634.13;5075216;28;20069;-77
2022/04/04 10:58:21;;;;;;;5.82;2.95;;;;;;;6.53;96.23;100638.13;5075148;28;20032;-76
2022/04/04 11:00:53;;;;;;;6.35;2.40;;;;;;;6.59;95.93;100628.13;5078799;28;20387;-76
2022/04/04 11:03:36;;;;;;;6.63;2.65;;;;;;;6.51;96.41;100624.66;5074857;28;20028;-75
2022/04/04 11:09:18;;;;;;;4.75;2.55;;;;;;;6.51;97.41;100622.06;5093579;28;20043;-77
2022/04/04 11:11:48;;;;;;;6.97;2.30;;;;;;;6.64;97.13;100616.41;5093230;28;20499;-77
2022/04/04 11:14:16;;;;;;;4.72;2.20;;;;;;;6.64;97.27;100625.88;5093081;28;20106;-76
2022/04/04 11:17:06;;;;;;;8.00;2.55;;;;;;;6.62;97.37;100609.84;5093470;28;20035;-75
2022/04/04 11:20:31;;;;;;;5.35;2.17;;;;;;;6.63;97.78;100598.63;5092936;28;20539;-77
2022/04/04 11:22:58;;;;;;;6.60;2.53;;;;;;;6.65;97.77;100594.94;4991440;28;20462;-77
2022/04/04 11:25:29;;;;;;;5.55;2.17;;;;;;;6.61;98.00;100593.63;4975009;28;20033;-75
2022/04/04 11:27:57;;;;;;;7.35;2.58;;;;;;;6.77;97.86;100592.78;5056473;28;20085;-76
2022/04/04 11:30:24;;;;;;;4.20;2.47;;;;;;;6.82;97.31;100587.97;5096492;28;20027;-77
2022/04/04 11:32:51;;;;;;;5.75;2.53;;;;;;;6.74;97.39;100577.72;5097075;28;20157;-76